Terminal Aerodrome Forecast
Issued by NWS

Home | Current Version | Previous Version | Text Only | Print | Product List | Glossary On
Versions: 1 2 3 4 5 6 7 8 9 10 11 12 13 14 15 16 17 18 19 20 21 22 23 24 25 26 27
000
FTUS46 KEKA 021729
TAFCEC
TAF
KCEC 021729Z 0218/0318 31006KT P6SM FEW003
     FM022100 32008KT P6SM SCT015
     FM030100 34004KT P6SM SCT010
     FM030400 34004KT P6SM BKN008
     FM030700 34003KT 5SM BR OVC008
     FM031500 32010KT P6SM SCT010=

USA.gov is the U.S. government's official web portal to all federal, state and local government web resources and services.